South Dartmouth, Massachusetts
Current Conditions -  °F | °C
As of 4:00 AM on Friday 24 Oct 2014 (Local Time) from KEWB Reporting Station
Overcast Overcast  
Wind Chill: 50°   Ceiling: 900
Heat Index: 50°   Visibility: 10mi
Dew Point: 48°   Wind: 8mph
Humidity: 93%   Direction: 350°N
Pressure: 29.62"   Gusts: NA
Location:  41.6°N, 70.94°W
Report Text: KEWB 240800Z 35007KT 300V010 10SM BKN009 OVC013 10/09 A2962 RMK AO2 T01000089 $
Loading
Personal Weather Stations






























Interactive Weather Map
Tropical Storm Tracking
New forecast layout! Learn more

10-Day Weather Forecast

Advertisements
Track Severe Weather on mobile